createdAt,value
2022-12-15T00:02:35.919Z,-5.28
2022-12-15T00:05:22.981Z,-5.30
2022-12-15T00:08:09.035Z,-5.31
2022-12-15T00:10:54.900Z,-5.31
2022-12-15T00:13:40.973Z,-5.24
2022-12-15T00:16:27.511Z,-5.29
2022-12-15T00:19:13.502Z,-5.30
2022-12-15T00:22:00.003Z,-5.27
2022-12-15T00:24:49.681Z,-5.33
2022-12-15T00:27:36.484Z,-5.27
2022-12-15T00:30:24.986Z,-5.25
2022-12-15T00:33:11.370Z,-5.29
2022-12-15T00:35:57.096Z,-5.24
2022-12-15T00:38:43.449Z,-5.28
2022-12-15T00:41:15.736Z,-5.26
2022-12-15T00:43:43.872Z,-5.30
2022-12-15T00:46:30.205Z,-5.37
2022-12-15T00:48:58.732Z,-5.31
2022-12-15T00:51:45.083Z,-5.27
2022-12-15T00:54:31.185Z,-5.42
2022-12-15T00:57:16.965Z,-5.43
2022-12-15T01:00:03.096Z,-5.45
2022-12-15T01:02:49.279Z,-5.45
2022-12-15T01:05:36.209Z,-5.41
2022-12-15T01:08:22.371Z,-5.48
2022-12-15T01:11:08.782Z,-5.49
2022-12-15T01:13:54.794Z,-5.55
2022-12-15T01:16:40.931Z,-5.52
2022-12-15T01:19:27.760Z,-5.50
2022-12-15T01:21:55.289Z,-5.48
2022-12-15T01:24:22.761Z,-5.46
2022-12-15T01:26:50.717Z,-5.49
2022-12-15T01:29:18.209Z,-5.46
2022-12-15T01:31:49.675Z,-5.42
2022-12-15T01:34:20.266Z,-5.33
2022-12-15T01:36:47.961Z,-5.37
2022-12-15T01:39:15.276Z,-5.41
2022-12-15T01:41:42.935Z,-5.50
2022-12-15T01:44:24.371Z,-5.49
2022-12-15T01:46:54.713Z,-5.50
2022-12-15T01:49:25.467Z,-5.51
2022-12-15T01:51:56.678Z,-5.48
2022-12-15T01:54:27.988Z,-5.53
2022-12-15T01:56:58.333Z,-5.44
2022-12-15T01:59:36.592Z,-5.44
2022-12-15T02:02:04.841Z,-5.47
2022-12-15T02:04:32.937Z,-5.29
2022-12-15T02:07:00.510Z,-5.37
2022-12-15T02:09:28.514Z,-5.38
2022-12-15T02:12:23.834Z,-5.46
2022-12-15T02:15:03.301Z,-5.51
2022-12-15T02:17:52.548Z,-5.52
2022-12-15T02:20:58.894Z,-5.63
2022-12-15T02:23:40.226Z,-5.59
2022-12-15T02:26:12.379Z,-5.56
2022-12-15T02:28:57.066Z,-5.58
2022-12-15T02:31:50.178Z,-5.63
2022-12-15T02:34:23.470Z,-5.66
2022-12-15T02:36:55.862Z,-5.67
2022-12-15T02:39:24.522Z,-5.66
2022-12-15T02:41:53.229Z,-5.68
2022-12-15T02:44:26.599Z,-5.65
2022-12-15T02:47:10.691Z,-5.66
2022-12-15T02:50:17.477Z,-5.60
2022-12-15T02:52:58.657Z,-5.63
2022-12-15T02:55:58.509Z,-5.62
2022-12-15T02:58:47.420Z,-5.62
2022-12-15T03:01:29.984Z,-5.61
2022-12-15T03:03:58.404Z,-5.54
2022-12-15T03:06:26.948Z,-5.52
2022-12-15T03:08:54.231Z,-5.55
2022-12-15T03:11:21.921Z,-5.50
2022-12-15T03:13:49.859Z,-5.56
2022-12-15T03:16:17.856Z,-5.59
2022-12-15T03:18:45.454Z,-5.54
2022-12-15T03:21:13.436Z,-5.53
2022-12-15T03:23:40.805Z,-5.57
2022-12-15T03:26:08.474Z,-5.51
2022-12-15T03:28:35.890Z,-5.54
2022-12-15T03:31:03.736Z,-5.49
2022-12-15T03:33:33.985Z,-5.48
2022-12-15T03:36:02.662Z,-5.45
2022-12-15T03:38:30.674Z,-5.42
2022-12-15T03:40:59.017Z,-5.38
2022-12-15T03:43:26.855Z,-5.35
2022-12-15T03:45:55.439Z,-5.39
2022-12-15T03:48:23.304Z,-5.36
2022-12-15T03:50:50.878Z,-5.31
2022-12-15T03:53:17.994Z,-5.25
2022-12-15T03:55:45.504Z,-5.22
2022-12-15T03:58:12.874Z,-5.19
2022-12-15T04:00:40.734Z,-5.20
2022-12-15T04:03:08.286Z,-5.18
2022-12-15T04:05:36.131Z,-5.20
2022-12-15T04:08:04.450Z,-5.14
2022-12-15T04:10:34.914Z,-5.14
2022-12-15T04:13:05.573Z,-5.17
2022-12-15T04:15:34.754Z,-5.14
2022-12-15T04:18:03.325Z,-5.14
2022-12-15T04:20:31.295Z,-5.19
2022-12-15T04:22:59.122Z,-5.15
2022-12-15T04:25:45.274Z,-5.14
2022-12-15T04:28:32.247Z,-5.12
2022-12-15T04:31:26.505Z,-5.14
2022-12-15T04:34:15.256Z,-5.09
2022-12-15T04:37:03.655Z,-5.08
2022-12-15T04:39:50.069Z,-5.12
2022-12-15T04:42:37.256Z,-5.17
2022-12-15T04:45:25.090Z,-5.14
2022-12-15T04:48:11.385Z,-5.09
2022-12-15T04:50:57.078Z,-5.11
2022-12-15T04:53:43.374Z,-5.06
2022-12-15T04:56:31.709Z,-5.07
2022-12-15T04:59:18.200Z,-5.08
2022-12-15T05:02:04.653Z,-5.05
2022-12-15T05:04:51.287Z,-4.99
2022-12-15T05:07:37.425Z,-5.02
2022-12-15T05:10:25.026Z,-5.04
2022-12-15T05:13:10.921Z,-5.02
2022-12-15T05:15:57.025Z,-5.01
2022-12-15T05:18:42.935Z,-4.94
2022-12-15T05:21:29.169Z,-4.93
2022-12-15T05:24:14.709Z,-4.93
2022-12-15T05:27:00.954Z,-4.92
2022-12-15T05:29:46.647Z,-4.86
2022-12-15T05:35:07.431Z,-4.98
2022-12-15T05:37:35.349Z,-4.96
2022-12-15T05:40:02.712Z,-4.97
2022-12-15T05:42:30.835Z,-4.97
2022-12-15T05:44:58.120Z,-4.94
2022-12-15T05:47:26.527Z,-4.93
2022-12-15T05:49:53.789Z,-4.91
2022-12-15T05:52:21.466Z,-4.93
2022-12-15T05:54:48.757Z,-4.90
2022-12-15T05:57:16.360Z,-4.97
2022-12-15T05:59:43.566Z,-4.88
2022-12-15T06:02:11.307Z,-4.88
2022-12-15T06:04:38.878Z,-4.91
2022-12-15T06:07:06.519Z,-4.95
2022-12-15T06:09:34.052Z,-4.90
2022-12-15T06:12:01.748Z,-4.93
2022-12-15T06:14:29.144Z,-4.93
2022-12-15T06:16:56.939Z,-4.98
2022-12-15T06:19:24.261Z,-5.01
2022-12-15T06:21:51.670Z,-4.98
2022-12-15T06:24:19.019Z,-5.01
2022-12-15T06:26:46.675Z,-5.03
2022-12-15T06:29:17.508Z,-5.04
2022-12-15T06:31:45.394Z,-5.01
2022-12-15T06:34:14.918Z,-4.97
2022-12-15T06:36:43.173Z,-4.96
2022-12-15T06:39:12.988Z,-4.98
2022-12-15T06:41:41.371Z,-4.97
2022-12-15T06:44:14.583Z,-4.95
2022-12-15T06:46:42.171Z,-4.94
2022-12-15T06:49:09.905Z,-4.92
2022-12-15T06:51:37.650Z,-4.92
2022-12-15T06:54:05.143Z,-4.94
2022-12-15T06:56:36.279Z,-4.86
2022-12-15T06:59:05.222Z,-4.88
2022-12-15T07:01:33.776Z,-4.86
2022-12-15T07:04:03.356Z,-4.81
2022-12-15T07:06:36.942Z,-4.80
2022-12-15T07:09:07.696Z,-4.79
2022-12-15T07:11:35.859Z,-4.81
2022-12-15T07:14:05.014Z,-4.82
2022-12-15T07:16:33.269Z,-4.78
2022-12-15T07:19:00.732Z,-4.77
2022-12-15T07:21:28.289Z,-4.76
2022-12-15T07:23:57.030Z,-4.72
2022-12-15T07:26:25.555Z,-4.70
2022-12-15T07:28:54.215Z,-4.76
2022-12-15T07:31:22.844Z,-4.64
2022-12-15T07:33:52.745Z,-4.63
2022-12-15T07:36:20.783Z,-4.66
2022-12-15T07:38:51.052Z,-4.52
2022-12-15T07:41:20.405Z,-4.48
2022-12-15T07:43:48.520Z,-4.41
2022-12-15T07:46:17.856Z,-4.37
2022-12-15T07:48:50.842Z,-4.33
2022-12-15T07:51:20.479Z,-4.33
2022-12-15T07:53:50.173Z,-4.32
2022-12-15T07:56:19.599Z,-4.21
2022-12-15T07:58:47.523Z,-4.22
2022-12-15T08:01:16.096Z,-4.19
2022-12-15T08:03:43.819Z,-4.10
2022-12-15T08:06:13.404Z,-3.96
2022-12-15T08:08:41.101Z,-3.89
2022-12-15T08:11:10.940Z,-3.81
2022-12-15T08:16:27.266Z,-3.90
2022-12-15T08:18:54.819Z,-3.71
2022-12-15T08:21:22.501Z,-3.59
2022-12-15T08:23:49.912Z,-3.51
2022-12-15T08:26:18.955Z,-3.46
2022-12-15T08:28:46.958Z,-3.47
2022-12-15T08:31:20.634Z,-3.40
2022-12-15T08:33:48.916Z,-3.42
2022-12-15T08:36:18.404Z,-3.44
2022-12-15T08:38:46.588Z,-3.48
2022-12-15T08:41:23.338Z,-3.50
2022-12-15T08:43:51.652Z,-3.47
2022-12-15T08:46:22.892Z,-3.44
2022-12-15T08:48:50.832Z,-3.52
2022-12-15T08:51:19.085Z,-3.62
2022-12-15T08:53:46.925Z,-3.51
2022-12-15T08:56:20.382Z,-3.48
2022-12-15T08:58:47.854Z,-3.59
2022-12-15T09:01:22.784Z,-3.61
2022-12-15T09:03:56.025Z,-3.53
2022-12-15T09:06:27.027Z,-3.59
2022-12-15T09:08:56.732Z,-3.68
2022-12-15T09:11:25.383Z,-3.72
2022-12-15T09:13:52.725Z,-3.73
2022-12-15T09:16:21.263Z,-3.73
2022-12-15T09:18:51.832Z,-3.84
2022-12-15T09:21:23.314Z,-3.83
2022-12-15T09:23:53.860Z,-3.87
2022-12-15T09:26:23.072Z,-3.89
2022-12-15T09:28:51.214Z,-3.86
2022-12-15T09:31:22.420Z,-3.84
2022-12-15T09:33:51.603Z,-3.90
2022-12-15T09:36:19.752Z,-3.88
2022-12-15T09:38:47.525Z,-3.92
2022-12-15T09:41:15.229Z,-3.93
2022-12-15T09:43:58.785Z,-3.98
2022-12-15T09:46:50.354Z,-3.89
2022-12-15T09:49:47.365Z,-3.87
2022-12-15T09:52:16.885Z,-3.91
2022-12-15T09:54:44.734Z,-3.97
2022-12-15T09:57:18.308Z,-4.05
2022-12-15T10:00:05.049Z,-4.09
2022-12-15T10:02:58.156Z,-4.08
2022-12-15T10:05:57.489Z,-3.97
2022-12-15T10:08:21.548Z,-3.98
2022-12-15T10:10:51.719Z,-3.94
2022-12-15T10:13:24.816Z,-3.99
2022-12-15T10:16:04.821Z,-4.04
2022-12-15T10:18:37.225Z,-4.09
2022-12-15T10:21:04.669Z,-4.12
2022-12-15T10:23:35.044Z,-4.04
2022-12-15T10:26:21.032Z,-4.14
2022-12-15T10:29:37.382Z,-4.12
2022-12-15T10:32:10.879Z,-4.04
2022-12-15T10:34:39.334Z,-4.30
2022-12-15T10:37:06.986Z,-4.11
2022-12-15T10:39:39.959Z,-4.15
2022-12-15T10:42:30.389Z,-3.98
2022-12-15T10:44:59.399Z,-3.99
2022-12-15T10:47:31.648Z,-3.99
2022-12-15T10:50:24.276Z,-3.99
2022-12-15T10:52:52.345Z,-3.92
2022-12-15T10:55:40.210Z,-3.99
2022-12-15T10:58:22.404Z,-4.07
2022-12-15T11:01:09.532Z,-4.03
2022-12-15T11:03:38.589Z,-3.92
2022-12-15T11:06:18.779Z,-3.95
2022-12-15T11:08:47.596Z,-3.95
2022-12-15T11:11:53.164Z,-3.97
2022-12-15T11:14:27.999Z,-3.88
2022-12-15T11:16:57.676Z,-3.89
2022-12-15T11:19:36.602Z,-4.00
2022-12-15T11:22:13.428Z,-3.99
2022-12-15T11:24:45.732Z,-4.10
2022-12-15T11:27:36.198Z,-4.13
2022-12-15T11:30:29.571Z,-4.13
2022-12-15T11:33:00.447Z,-4.23
2022-12-15T11:35:38.556Z,-4.24
2022-12-15T11:38:47.768Z,-4.20
2022-12-15T11:42:06.693Z,-4.23
2022-12-15T11:44:48.993Z,-4.28
2022-12-15T11:47:33.022Z,-4.27
2022-12-15T11:50:25.608Z,-4.38
2022-12-15T11:53:23.834Z,-4.40
2022-12-15T11:55:57.183Z,-4.32
2022-12-15T11:58:32.731Z,-4.32
2022-12-15T12:01:10.311Z,-4.41
2022-12-15T12:04:02.787Z,-4.37
2022-12-15T12:06:49.476Z,-4.45
2022-12-15T12:09:38.861Z,-4.49
2022-12-15T12:12:34.364Z,-4.48
2022-12-15T12:15:07.606Z,-4.51
2022-12-15T12:17:58.014Z,-4.48
2022-12-15T12:20:30.295Z,-4.47
2022-12-15T12:23:05.021Z,-4.61
2022-12-15T12:25:42.165Z,-4.65
2022-12-15T12:28:30.861Z,-4.79
2022-12-15T12:31:00.644Z,-4.74
2022-12-15T12:33:41.162Z,-4.68
2022-12-15T12:36:15.933Z,-4.73
2022-12-15T12:38:50.792Z,-4.74
2022-12-15T12:41:40.631Z,-4.77
2022-12-15T12:44:34.454Z,-4.91
2022-12-15T12:47:14.684Z,-4.88
2022-12-15T12:52:37.210Z,-4.91
2022-12-15T12:55:26.243Z,-4.97
2022-12-15T12:57:54.400Z,-4.96
2022-12-15T13:00:32.609Z,-4.97
2022-12-15T13:03:21.151Z,-5.11
2022-12-15T13:05:50.844Z,-5.13
2022-12-15T13:08:27.650Z,-5.15
2022-12-15T13:10:56.539Z,-5.32
2022-12-15T13:13:32.039Z,-5.18
2022-12-15T13:16:11.913Z,-5.17
2022-12-15T13:18:59.159Z,-5.14
2022-12-15T13:21:45.114Z,-5.15
2022-12-15T13:25:01.237Z,-5.13
2022-12-15T13:27:37.094Z,-5.12
2022-12-15T13:30:07.881Z,-5.07
2022-12-15T13:32:52.406Z,-5.08
2022-12-15T13:35:19.836Z,-5.08
2022-12-15T13:37:53.564Z,-5.14
2022-12-15T13:40:27.257Z,-5.07
2022-12-15T13:43:10.435Z,-5.06
2022-12-15T13:45:37.803Z,-5.04
2022-12-15T13:48:29.718Z,-5.03
2022-12-15T13:51:18.194Z,-5.03
2022-12-15T13:53:53.895Z,-5.04
2022-12-15T13:56:40.285Z,-5.02
2022-12-15T13:59:19.809Z,-5.00
2022-12-15T14:01:51.771Z,-4.93
2022-12-15T14:04:20.124Z,-4.96
2022-12-15T14:06:55.906Z,-4.93
2022-12-15T14:09:42.210Z,-4.92
2022-12-15T14:12:13.897Z,-4.90
2022-12-15T14:14:49.200Z,-4.84
2022-12-15T14:17:18.555Z,-4.90
2022-12-15T14:19:51.013Z,-4.87
2022-12-15T14:25:18.805Z,-4.83
2022-12-15T14:27:50.812Z,-4.78
2022-12-15T14:30:26.800Z,-4.78
2022-12-15T14:33:07.183Z,-4.77
2022-12-15T14:35:49.424Z,-4.75
2022-12-15T14:38:44.005Z,-4.79
2022-12-15T14:41:21.555Z,-4.78
2022-12-15T14:44:37.114Z,-4.86
2022-12-15T14:46:38.213Z,-4.87
2022-12-15T14:49:07.864Z,-4.83
2022-12-15T14:51:48.031Z,-4.86
2022-12-15T14:54:35.702Z,-4.90
2022-12-15T14:57:25.725Z,-4.90
2022-12-15T14:59:53.580Z,-5.03
2022-12-15T15:02:26.922Z,-5.07
2022-12-15T15:03:14.223Z,-4.82
2022-12-15T15:03:16.101Z,-4.90
2022-12-15T15:05:03.507Z,-5.08
2022-12-15T15:07:36.440Z,-5.07
2022-12-15T15:10:20.486Z,-5.10
2022-12-15T15:12:49.305Z,-5.13
2022-12-15T15:15:18.448Z,-5.17
2022-12-15T15:17:57.528Z,-5.22
2022-12-15T15:20:27.241Z,-5.25
2022-12-15T15:23:15.444Z,-5.24
2022-12-15T15:25:54.682Z,-5.31
2022-12-15T15:28:25.392Z,-5.29
2022-12-15T15:30:56.540Z,-5.32
2022-12-15T15:33:25.644Z,-5.28
2022-12-15T15:35:59.448Z,-5.27
2022-12-15T15:38:40.829Z,-5.29
2022-12-15T15:41:25.960Z,-5.37
2022-12-15T15:43:53.780Z,-5.31
2022-12-15T15:46:26.480Z,-5.35
2022-12-15T15:49:08.540Z,-5.36
2022-12-15T15:51:36.825Z,-5.34
2022-12-15T15:54:14.449Z,-5.40
2022-12-15T15:56:41.662Z,-5.35
2022-12-15T15:59:14.278Z,-5.38
2022-12-15T16:01:41.673Z,-5.31
2022-12-15T16:04:09.556Z,-5.25
2022-12-15T16:06:39.682Z,-5.23
2022-12-15T16:09:10.291Z,-5.20
2022-12-15T16:11:38.271Z,-5.17
2022-12-15T16:14:17.726Z,-5.14
2022-12-15T16:16:45.373Z,-5.13
2022-12-15T16:19:13.250Z,-5.18
2022-12-15T16:21:41.512Z,-5.18
2022-12-15T16:24:13.910Z,-5.19
2022-12-15T16:26:47.409Z,-5.23
2022-12-15T16:29:16.306Z,-5.30
2022-12-15T16:31:46.863Z,-5.36
2022-12-15T16:34:16.790Z,-5.34
2022-12-15T16:36:44.968Z,-5.27
2022-12-15T16:39:38.730Z,-5.33
2022-12-15T16:42:05.947Z,-5.29
2022-12-15T16:44:33.749Z,-5.34
2022-12-15T16:47:01.536Z,-5.38
2022-12-15T16:49:35.114Z,-5.40
2022-12-15T16:52:05.556Z,-5.42
2022-12-15T16:54:33.232Z,-5.44
2022-12-15T16:57:00.824Z,-5.36
2022-12-15T16:59:33.459Z,-5.33
2022-12-15T17:02:01.576Z,-5.28
2022-12-15T17:04:29.443Z,-5.30
2022-12-15T17:06:56.663Z,-5.25
2022-12-15T17:09:25.963Z,-5.24
2022-12-15T17:11:53.329Z,-5.20
2022-12-15T17:14:21.001Z,-5.16
2022-12-15T17:16:48.272Z,-5.14
2022-12-15T17:19:20.839Z,-5.11
2022-12-15T17:21:51.894Z,-5.10
2022-12-15T17:24:20.732Z,-5.07
2022-12-15T17:26:48.346Z,-5.07
2022-12-15T17:29:18.857Z,-4.99
2022-12-15T17:31:46.353Z,-5.03
2022-12-15T17:34:33.691Z,-4.99
2022-12-15T17:37:04.601Z,-4.97
2022-12-15T17:39:34.161Z,-4.96
2022-12-15T17:42:03.073Z,-4.95
2022-12-15T17:44:36.258Z,-4.96
2022-12-15T17:47:06.526Z,-4.93
2022-12-15T17:49:38.237Z,-5.03
2022-12-15T17:52:23.160Z,-4.93
2022-12-15T17:54:51.804Z,-4.91
2022-12-15T17:57:19.124Z,-4.92
2022-12-15T17:59:47.463Z,-4.85
2022-12-15T18:02:15.695Z,-4.84
2022-12-15T18:04:44.184Z,-4.81
2022-12-15T18:07:19.874Z,-4.80
2022-12-15T18:09:49.836Z,-4.78
2022-12-15T18:12:25.488Z,-4.74
2022-12-15T18:14:54.401Z,-4.72
2022-12-15T18:17:22.025Z,-4.71
2022-12-15T18:19:49.681Z,-4.68
2022-12-15T18:22:22.819Z,-4.71
2022-12-15T18:24:52.368Z,-4.68
2022-12-15T18:27:23.725Z,-4.64
2022-12-15T18:29:51.724Z,-4.61
2022-12-15T18:32:19.884Z,-4.62
2022-12-15T18:34:47.723Z,-4.59
2022-12-15T18:37:20.644Z,-4.56
2022-12-15T18:39:48.895Z,-4.53
2022-12-15T18:42:18.224Z,-4.48
2022-12-15T18:44:49.792Z,-4.45
2022-12-15T18:47:19.050Z,-4.45
2022-12-15T18:49:46.846Z,-4.43
2022-12-15T18:52:17.924Z,-4.42
2022-12-15T18:54:47.601Z,-4.41
2022-12-15T18:57:39.974Z,-4.39
2022-12-15T19:00:18.985Z,-4.39
2022-12-15T19:02:46.764Z,-4.37
2022-12-15T19:05:44.031Z,-4.42
2022-12-15T19:08:27.081Z,-4.38
2022-12-15T19:11:04.827Z,-4.38
2022-12-15T19:13:35.861Z,-4.37
2022-12-15T19:16:06.983Z,-4.43
2022-12-15T19:18:52.861Z,-4.39
2022-12-15T19:21:49.740Z,-4.41
2022-12-15T19:24:50.204Z,-4.40
2022-12-15T19:27:26.316Z,-4.45
2022-12-15T19:29:55.127Z,-4.42
2022-12-15T19:32:23.365Z,-4.48
2022-12-15T19:34:50.898Z,-4.47
2022-12-15T19:37:30.267Z,-4.50
2022-12-15T19:39:59.811Z,-4.47
2022-12-15T19:42:30.857Z,-4.43
2022-12-15T19:44:58.413Z,-4.39
2022-12-15T19:47:26.090Z,-4.38
2022-12-15T19:49:53.581Z,-4.35
2022-12-15T19:52:22.972Z,-4.31
2022-12-15T19:54:50.494Z,-4.26
2022-12-15T19:57:19.070Z,-4.24
2022-12-15T19:59:46.873Z,-4.27
2022-12-15T20:02:20.504Z,-4.25
2022-12-15T20:04:48.816Z,-4.23
2022-12-15T20:07:30.759Z,-4.21
2022-12-15T20:09:58.452Z,-4.25
2022-12-15T20:12:26.236Z,-4.19
2022-12-15T20:14:53.657Z,-4.15
2022-12-15T20:17:21.816Z,-4.16
2022-12-15T20:19:49.335Z,-4.16
2022-12-15T20:22:19.737Z,-4.14
2022-12-15T20:24:48.528Z,-4.11
2022-12-15T20:27:19.397Z,-4.11
2022-12-15T20:29:46.995Z,-4.16
2022-12-15T20:32:16.679Z,-4.15
2022-12-15T20:34:44.170Z,-4.14
2022-12-15T20:37:25.779Z,-4.16
2022-12-15T20:39:57.433Z,-4.17
2022-12-15T20:42:25.730Z,-4.16
2022-12-15T20:44:54.211Z,-4.10
2022-12-15T20:47:24.728Z,-4.20
2022-12-15T20:49:53.144Z,-4.11
2022-12-15T20:52:23.386Z,-4.12
2022-12-15T20:54:52.315Z,-4.06
2022-12-15T20:57:20.680Z,-4.05
2022-12-15T20:59:48.163Z,-4.03
2022-12-15T21:02:18.878Z,-4.02
2022-12-15T21:04:46.506Z,-4.01
2022-12-15T21:07:15.114Z,-3.98
2022-12-15T21:09:42.815Z,-4.01
2022-12-15T21:12:19.177Z,-4.10
2022-12-15T21:14:47.068Z,-4.11
2022-12-15T21:17:16.294Z,-4.25
2022-12-15T21:19:43.769Z,-4.25
2022-12-15T21:22:26.990Z,-4.23
2022-12-15T21:24:57.356Z,-4.28
2022-12-15T21:27:25.480Z,-4.33
2022-12-15T21:29:53.287Z,-4.37
2022-12-15T21:32:21.522Z,-4.41
2022-12-15T21:34:50.054Z,-4.46
2022-12-15T21:37:24.719Z,-4.46
2022-12-15T21:39:52.110Z,-4.48
2022-12-15T21:42:21.228Z,-4.47
2022-12-15T21:44:48.929Z,-4.47
2022-12-15T21:47:47.247Z,-4.54
2022-12-15T21:50:18.384Z,-4.53
2022-12-15T21:52:46.348Z,-4.61
2022-12-15T21:55:27.126Z,-4.61
2022-12-15T21:57:55.566Z,-4.65
2022-12-15T22:00:24.313Z,-4.70
2022-12-15T22:02:53.485Z,-4.81
2022-12-15T22:05:30.533Z,-4.86
2022-12-15T22:07:58.980Z,-4.77
2022-12-15T22:10:26.160Z,-4.82
2022-12-15T22:12:59.312Z,-4.86
2022-12-15T22:15:29.284Z,-4.91
2022-12-15T22:17:57.088Z,-4.84
2022-12-15T22:20:24.809Z,-4.82
2022-12-15T22:22:52.722Z,-4.78
2022-12-15T22:25:25.697Z,-4.82
2022-12-15T22:27:54.853Z,-4.85
2022-12-15T22:30:26.868Z,-4.78
2022-12-15T22:32:54.673Z,-4.78
2022-12-15T22:35:24.605Z,-4.75
2022-12-15T22:37:56.487Z,-4.83
2022-12-15T22:40:24.596Z,-4.88
2022-12-15T22:42:55.725Z,-4.90
2022-12-15T22:45:24.342Z,-4.82
2022-12-15T22:47:52.565Z,-4.84
2022-12-15T22:50:22.232Z,-4.81
2022-12-15T22:52:50.300Z,-4.81
2022-12-15T22:55:21.051Z,-4.81
2022-12-15T22:57:57.205Z,-4.88
2022-12-15T23:00:24.604Z,-4.90
2022-12-15T23:02:52.761Z,-4.88
2022-12-15T23:05:20.635Z,-4.85
2022-12-15T23:07:48.451Z,-4.83
2022-12-15T23:10:36.343Z,-4.81
2022-12-15T23:13:05.067Z,-4.82
2022-12-15T23:15:51.796Z,-4.83
2022-12-15T23:18:19.651Z,-4.84
2022-12-15T23:20:47.108Z,-4.82
2022-12-15T23:23:15.618Z,-4.90
2022-12-15T23:25:43.856Z,-4.91
2022-12-15T23:28:11.606Z,-4.91
2022-12-15T23:30:39.017Z,-4.79
2022-12-15T23:33:06.727Z,-4.88
2022-12-15T23:35:34.237Z,-4.86
2022-12-15T23:38:01.964Z,-4.93
2022-12-15T23:40:29.494Z,-4.85
2022-12-15T23:42:57.252Z,-4.88
2022-12-15T23:45:24.652Z,-4.82
2022-12-15T23:47:52.283Z,-4.83
2022-12-15T23:50:21.394Z,-4.83
2022-12-15T23:52:51.740Z,-4.84
2022-12-15T23:55:19.602Z,-4.77
2022-12-15T23:57:47.337Z,-4.80
